首页
METAR-TAF:

METAR-TAF

机场 :

Mason City Municipal Airport

麦逊城, 艾奥瓦州, 美国

纬度: 43-09-28N, 经度: 093-19-53W, 海拔: 370米

当前天气观测

该预报发布于38分钟前的06:16 UTC
静风
温度 2°C
湿度 100%
气压 1006 hPa
能見度: 4.0公里
阴天层高于300英尺
小雨, 轻雾

METAR: KMCW 190616Z AUTO 00000KT 2 1/2SM -RA BR OVC003 02/02 A2970 RMK AO2 UPE0559RAB0559 P0001 T00220017

时间: 00:54 (06:54 UTC)

预报

该预报发布于1小时和20分钟前的05:34 UTC
预报有效从19日的 06点(UTC)到 20日的 06点(UTC)
风速3节,风向东南
能見度: 4.8公里
阴天层高于300英尺
轻雾, 附近有阵雨
从 19日的 0900点(UTC)
风速9节,风向西转西北
能見度: 10公里
阴天层高于800英尺
从 19日的 1400点(UTC)
风速12节,风向西北
能見度: 10公里
多云层高于1500英尺
从 19日的 1800点(UTC)
风速13节,风向西北,有时为19节阵风
能見度: 10公里
多云层高于2500英尺
从 20日的 0000点(UTC)
风速3节,风向多变
能見度: 10公里
散云层高于3000英尺

TAF: KMCW 190534Z 1906/2006 13003KT 3SM BR VCSH OVC003 FM190900 30009KT P6SM OVC008 FM191400 31012KT P6SM BKN015 FM191800 31013G19KT P6SM BKN025 FM200000 VRB03KT P6SM SCT030

超过4000个机场的气象观测和天气预报(METAR&TAF报告)。

可查询的气象台以黄色和红色小点在地图上表示。

将鼠标移到小点上方,可查看气象台名称。

然后点击查看天气观测和预报。

如需切换地图:点击带黑十字的绿色按钮放大地图;点击带横线的绿色按钮缩小地图;或者点击绿色箭头查看邻近地区的地图。


METAR-TAF: